Time;durP1;ratioP1;P1;durP2;ratioP2;P2;SDS_P1;SDS_P2;PMS_P1;PMS_P2;Temp;Humidity;BMP_temperature;BMP_pressure;BME280_temperature;BME280_humidity;BME280_pressure;Samples;Min_cycle;Max_cycle;Signal;HPM_P1;HPM_P2
2021/12/18 00:01:25;;;;;;;7.13;3.63;;;6.10;99.90;;;;;;4963226;29;20219;-70
2021/12/18 00:03:53;;;;;;;6.22;3.70;;;6.00;99.90;;;;;;4964184;29;20028;-69
2021/12/18 00:06:19;;;;;;;7.00;3.55;;;6.00;99.90;;;;;;4964162;29;20035;-69
2021/12/18 00:08:45;;;;;;;7.53;3.80;;;6.10;99.90;;;;;;4965378;28;20031;-70
2021/12/18 00:11:13;;;;;;;11.20;4.25;;;6.20;99.90;;;;;;4967909;29;20034;-69
2021/12/18 00:13:39;;;;;;;7.68;4.10;;;6.10;99.90;;;;;;4966144;29;20027;-69
2021/12/18 00:16:06;;;;;;;8.82;3.53;;;6.00;99.90;;;;;;4967545;29;20213;-69
2021/12/18 00:18:32;;;;;;;8.45;4.20;;;6.10;99.90;;;;;;4966750;29;20082;-69
2021/12/18 00:21:01;;;;;;;9.15;4.45;;;6.20;99.90;;;;;;4967663;29;20050;-70
2021/12/18 00:23:27;;;;;;;7.13;3.65;;;6.10;99.90;;;;;;4967231;29;20026;-69
2021/12/18 00:25:53;;;;;;;10.85;4.53;;;6.00;99.90;;;;;;4967459;29;20267;-69
2021/12/18 00:28:20;;;;;;;8.90;3.65;;;6.10;99.90;;;;;;4966996;29;20023;-69
2021/12/18 00:30:46;;;;;;;9.55;4.65;;;6.10;99.90;;;;;;4967001;29;20023;-70
2021/12/18 00:33:12;;;;;;;10.30;4.47;;;6.10;99.90;;;;;;4967078;29;20218;-70
2021/12/18 00:35:37;;;;;;;12.50;4.43;;;6.10;99.90;;;;;;4949605;29;20019;-70
2021/12/18 00:38:05;;;;;;;12.50;4.85;;;6.00;99.90;;;;;;4950401;29;20045;-70
2021/12/18 00:40:44;;;;;;;7.35;3.95;;;6.00;99.90;;;;;;4966680;29;20191;-70
2021/12/18 00:43:27;;;;;;;7.20;3.78;;;6.00;99.90;;;;;;4965599;29;20023;-71
2021/12/18 00:45:53;;;;;;;9.68;4.55;;;5.90;99.90;;;;;;4965461;29;20019;-70
2021/12/18 00:48:19;;;;;;;10.85;4.80;;;6.00;99.90;;;;;;4966964;29;20125;-70
2021/12/18 00:50:46;;;;;;;9.75;3.45;;;6.00;99.90;;;;;;4966414;29;20023;-70
2021/12/18 00:53:11;;;;;;;8.38;4.38;;;5.90;99.90;;;;;;4966652;29;20023;-70
2021/12/18 00:55:38;;;;;;;7.03;3.72;;;5.90;99.90;;;;;;4949770;29;20019;-70
2021/12/18 00:58:04;;;;;;;9.85;4.80;;;5.90;99.90;;;;;;4950066;29;20259;-70
2021/12/18 01:00:30;;;;;;;10.70;4.32;;;5.90;99.90;;;;;;4949501;29;20098;-70
2021/12/18 01:03:00;;;;;;;8.73;3.72;;;5.90;99.90;;;;;;4967366;29;20082;-70
2021/12/18 01:05:28;;;;;;;8.32;4.35;;;5.90;99.90;;;;;;4966245;29;20019;-70
2021/12/18 01:07:56;;;;;;;10.27;4.00;;;5.90;99.90;;;;;;4966748;29;20023;-70
2021/12/18 01:13:10;;;;;;;7.38;4.30;;;6.00;99.90;;;;;;4965670;23;20078;-67
2021/12/18 01:15:42;;;;;;;7.70;4.22;;;6.00;99.90;;;;;;4945697;29;20046;-67
2021/12/18 01:23:36;;;;;;;8.65;3.55;;;5.90;99.90;;;;;;4946375;29;20027;-67
2021/12/18 01:26:04;;;;;;;5.68;3.58;;;6.00;99.90;;;;;;4947066;29;20019;-67
2021/12/18 01:28:30;;;;;;;8.00;4.07;;;6.00;99.90;;;;;;4945541;29;20070;-68
2021/12/18 01:30:56;;;;;;;12.45;4.68;;;5.90;99.90;;;;;;4947053;29;20128;-67
2021/12/18 01:33:21;;;;;;;7.32;4.18;;;5.90;99.90;;;;;;4946856;29;20031;-68
2021/12/18 01:35:48;;;;;;;7.85;4.00;;;6.00;99.90;;;;;;4946383;29;20011;-67
2021/12/18 01:38:15;;;;;;;9.63;4.30;;;5.90;99.90;;;;;;4945987;29;20047;-67
2021/12/18 01:40:41;;;;;;;8.18;4.20;;;5.90;99.90;;;;;;4945257;29;20093;-68
2021/12/18 01:46:06;;;;;;;7.35;4.50;;;6.00;99.90;;;;;;4946425;29;20030;-68
2021/12/18 01:53:50;;;;;;;7.85;4.07;;;6.20;99.90;;;;;;4946190;29;20046;-67
2021/12/18 01:56:16;;;;;;;6.80;3.67;;;6.20;99.90;;;;;;4945750;29;20028;-67
2021/12/18 01:58:44;;;;;;;10.45;4.45;;;6.20;99.90;;;;;;4960970;29;20206;-67
2021/12/18 02:01:11;;;;;;;8.48;4.05;;;6.20;99.90;;;;;;4945189;29;20054;-68
2021/12/18 02:03:37;;;;;;;10.27;4.18;;;6.20;99.90;;;;;;4944586;29;20063;-67
2021/12/18 02:06:03;;;;;;;7.85;4.20;;;6.20;99.90;;;;;;4946560;29;20089;-67
2021/12/18 02:08:30;;;;;;;11.60;4.68;;;6.20;99.90;;;;;;4944669;29;20100;-68
2021/12/18 02:11:11;;;;;;;7.47;3.92;;;6.10;99.90;;;;;;4945222;29;20023;-67
2021/12/18 02:21:41;;;;;;;7.43;3.78;;;6.30;99.90;;;;;;4945355;29;20030;-67
2021/12/18 02:24:07;;;;;;;7.10;4.20;;;6.30;99.90;;;;;;4946268;29;20043;-67
2021/12/18 02:26:33;;;;;;;9.82;4.75;;;6.30;99.90;;;;;;4944392;29;20030;-67
2021/12/18 02:29:02;;;;;;;8.70;4.60;;;6.20;99.90;;;;;;4944969;29;20019;-67
2021/12/18 02:31:28;;;;;;;10.93;4.70;;;6.10;99.90;;;;;;4943384;29;20031;-67
2021/12/18 02:33:55;;;;;;;8.10;4.63;;;6.00;99.90;;;;;;4945329;29;20024;-67
2021/12/18 02:36:25;;;;;;;8.27;4.25;;;6.00;99.90;;;;;;4945588;29;20026;-67
2021/12/18 02:39:05;;;;;;;10.63;4.75;;;6.10;99.90;;;;;;4942304;29;20043;-67
2021/12/18 02:44:07;;;;;;;8.38;4.47;;;6.20;99.90;;;;;;4944994;29;20027;-67
2021/12/18 02:46:33;;;;;;;8.57;4.70;;;6.20;99.90;;;;;;4951396;29;20030;-67
2021/12/18 02:49:09;;;;;;;9.30;4.68;;;6.20;99.90;;;;;;4943555;29;20012;-67
2021/12/18 02:51:35;;;;;;;5.65;4.25;;;6.10;99.90;;;;;;4950327;29;20299;-67
2021/12/18 02:54:01;;;;;;;12.27;5.35;;;6.10;99.90;;;;;;4941826;29;20028;-67
2021/12/18 02:56:26;;;;;;;7.18;4.78;;;6.10;99.90;;;;;;4921707;29;20046;-68
2021/12/18 02:58:58;;;;;;;9.90;4.03;;;6.10;99.90;;;;;;4921375;29;20079;-68
2021/12/18 03:01:26;;;;;;;7.72;4.75;;;6.10;99.90;;;;;;4919569;29;20038;-67
2021/12/18 03:03:53;;;;;;;9.37;4.43;;;6.00;99.90;;;;;;4920900;29;20396;-67
2021/12/18 03:25:33;;;;;;;10.02;5.65;;;6.00;99.90;;;;;;4939872;29;20099;-68
2021/12/18 03:28:00;;;;;;;9.70;5.30;;;6.00;99.90;;;;;;4940552;29;20031;-70
2021/12/18 03:30:26;;;;;;;11.52;6.32;;;6.10;99.90;;;;;;4940355;29;20098;-68
2021/12/18 03:32:52;;;;;;;12.63;5.57;;;6.10;99.90;;;;;;4938605;29;20055;-68
2021/12/18 03:35:19;;;;;;;11.80;5.40;;;6.00;99.90;;;;;;4921674;29;20023;-68
2021/12/18 03:37:45;;;;;;;9.30;5.60;;;5.90;99.90;;;;;;4936716;29;20028;-68
2021/12/18 03:40:14;;;;;;;13.10;6.05;;;5.90;99.90;;;;;;4935889;29;20311;-69
2021/12/18 03:42:39;;;;;;;9.43;5.63;;;5.80;99.90;;;;;;4922635;29;20020;-68
2021/12/18 03:45:07;;;;;;;10.10;5.82;;;5.80;99.90;;;;;;4946191;29;20027;-68
2021/12/18 03:47:33;;;;;;;11.27;5.93;;;5.80;99.90;;;;;;4942252;29;20063;-68
2021/12/18 03:49:59;;;;;;;10.95;5.75;;;5.90;99.90;;;;;;4928172;29;20119;-68
2021/12/18 03:52:25;;;;;;;10.70;6.18;;;5.80;99.90;;;;;;4925215;29;20027;-69
2021/12/18 03:54:51;;;;;;;10.45;5.57;;;5.80;99.90;;;;;;4925640;29;20334;-69
2021/12/18 03:57:17;;;;;;;11.43;5.55;;;5.80;99.90;;;;;;4926444;29;20028;-69
2021/12/18 03:59:42;;;;;;;10.13;5.40;;;5.80;99.90;;;;;;4928275;29;20035;-68
2021/12/18 04:02:08;;;;;;;8.25;5.55;;;5.70;99.90;;;;;;4945356;29;20024;-69
2021/12/18 04:04:34;;;;;;;10.77;6.22;;;5.80;99.90;;;;;;4938410;29;20027;-70
2021/12/18 04:07:00;;;;;;;10.05;5.93;;;5.80;99.90;;;;;;4945063;29;20330;-67
2021/12/18 04:09:28;;;;;;;10.63;6.15;;;5.80;99.90;;;;;;4926310;29;20218;-68
2021/12/18 04:11:54;;;;;;;11.00;5.53;;;5.70;99.90;;;;;;4925363;29;20051;-68
2021/12/18 04:14:21;;;;;;;12.10;5.85;;;5.70;99.90;;;;;;4926363;29;20031;-69
2021/12/18 04:16:46;;;;;;;9.07;6.03;;;5.70;99.90;;;;;;4940514;29;20058;-68
2021/12/18 04:19:12;;;;;;;11.95;6.55;;;5.70;99.90;;;;;;4946442;29;20020;-68
2021/12/18 04:21:39;;;;;;;13.73;6.22;;;5.70;99.90;;;;;;4947337;29;20031;-68
2021/12/18 04:24:05;;;;;;;11.43;6.25;;;5.60;99.90;;;;;;4948312;29;20038;-68
2021/12/18 04:26:32;;;;;;;12.57;7.25;;;5.60;99.90;;;;;;4947181;29;20210;-68
2021/12/18 04:28:59;;;;;;;12.88;6.60;;;5.60;99.90;;;;;;4967037;29;20019;-68
2021/12/18 04:31:25;;;;;;;11.15;5.82;;;5.60;99.90;;;;;;4950028;29;20098;-68
2021/12/18 04:33:50;;;;;;;18.95;11.73;;;5.60;99.90;;;;;;4949391;29;20329;-68
2021/12/18 04:36:16;;;;;;;12.73;6.30;;;5.60;99.90;;;;;;4949787;29;20207;-68
2021/12/18 04:38:42;;;;;;;12.85;7.82;;;5.60;99.90;;;;;;4966026;29;20030;-68
2021/12/18 04:41:10;;;;;;;11.98;7.30;;;5.60;99.90;;;;;;4949442;29;20027;-68
2021/12/18 04:43:36;;;;;;;13.50;8.00;;;5.60;99.90;;;;;;4949424;29;20098;-70
2021/12/18 04:46:02;;;;;;;13.55;8.10;;;5.60;99.90;;;;;;4949509;29;20019;-68
2021/12/18 04:48:28;;;;;;;16.00;8.70;;;5.50;99.90;;;;;;4949939;29;20098;-68
2021/12/18 04:50:54;;;;;;;14.38;8.50;;;5.50;99.90;;;;;;4948284;29;20039;-69
2021/12/18 04:53:19;;;;;;;13.45;8.77;;;5.50;99.90;;;;;;4949291;29;20306;-68
2021/12/18 04:55:45;;;;;;;16.98;8.95;;;5.50;99.90;;;;;;4948303;29;20019;-68
2021/12/18 04:58:11;;;;;;;14.07;8.45;;;5.50;99.90;;;;;;4949019;29;20023;-67
2021/12/18 05:00:39;;;;;;;14.65;9.18;;;5.50;99.90;;;;;;4948549;29;20333;-69
2021/12/18 05:03:08;;;;;;;19.02;9.57;;;5.60;99.90;;;;;;4966672;29;20086;-68
2021/12/18 05:05:34;;;;;;;;;;;5.50;99.90;;;;;;4950081;29;20034;-68
2021/12/18 05:08:02;;;;;;;12.80;8.77;;;5.50;99.90;;;;;;4948591;29;19977;-68
2021/12/18 05:10:27;;;;;;;17.48;9.07;;;5.60;99.90;;;;;;4948885;29;20035;-68
2021/12/18 05:15:37;;;;;;;17.42;9.82;;;5.70;99.90;;;;;;4946752;29;20055;-70
2021/12/18 05:18:03;;;;;;;14.65;9.82;;;5.70;99.90;;;;;;4945541;29;20090;-68
2021/12/18 05:20:29;;;;;;;16.98;10.45;;;5.70;99.90;;;;;;4945388;29;20030;-68
2021/12/18 05:22:56;;;;;;;16.45;10.68;;;5.70;99.90;;;;;;4945110;29;20345;-68
2021/12/18 05:25:22;;;;;;;15.18;10.50;;;5.80;99.90;;;;;;4946969;29;20023;-68
2021/12/18 05:27:48;;;;;;;20.20;10.95;;;5.80;99.90;;;;;;4945209;29;20090;-68
2021/12/18 05:30:13;;;;;;;19.92;10.98;;;5.80;99.90;;;;;;4945228;29;20141;-68
2021/12/18 05:32:39;;;;;;;18.15;11.68;;;5.70;99.90;;;;;;4945343;29;20028;-71
2021/12/18 05:35:06;;;;;;;17.42;10.00;;;5.60;99.90;;;;;;4945030;29;20020;-67
2021/12/18 05:37:45;;;;;;;16.48;10.00;;;5.60;99.90;;;;;;4945514;29;20051;-68
2021/12/18 05:40:24;;;;;;;17.50;10.88;;;5.60;99.90;;;;;;4945638;29;20034;-68
2021/12/18 05:42:51;;;;;;;18.70;11.52;;;5.50;99.90;;;;;;4944313;29;20019;-67
2021/12/18 05:45:18;;;;;;;15.48;10.20;;;5.60;99.90;;;;;;4946220;29;20111;-67
2021/12/18 05:47:45;;;;;;;16.52;10.48;;;5.60;99.90;;;;;;4944903;29;20090;-67
2021/12/18 05:50:14;;;;;;;17.80;10.20;;;5.70;99.90;;;;;;4946355;29;20138;-67
2021/12/18 05:52:40;;;;;;;;;;;5.80;99.90;;;;;;4944595;29;20043;-69
2021/12/18 05:55:07;;;;;;;18.48;10.25;;;5.70;99.90;;;;;;4945928;29;20216;-67
2021/12/18 05:57:33;;;;;;;13.65;9.30;;;5.60;99.90;;;;;;4945324;29;20298;-67
2021/12/18 05:59:59;;;;;;;15.10;9.82;;;5.60;99.90;;;;;;4945864;29;20058;-67
2021/12/18 06:02:24;;;;;;;18.42;11.07;;;5.60;99.90;;;;;;4944536;29;20047;-66
2021/12/18 06:04:50;;;;;;;15.05;9.73;;;5.60;99.90;;;;;;4944185;29;20027;-67
2021/12/18 06:08:03;;;;;;;18.75;11.32;;;5.50;99.90;;;;;;4943656;29;20192;-67
2021/12/18 06:10:02;;;;;;;18.30;10.05;;;5.50;99.90;;;;;;4934524;29;20119;-67
2021/12/18 06:12:28;;;;;;;14.55;9.93;;;5.50;99.90;;;;;;4944163;29;20274;-67
2021/12/18 06:14:54;;;;;;;16.05;9.88;;;5.40;99.90;;;;;;4944095;29;20024;-67
2021/12/18 06:17:19;;;;;;;16.95;8.95;;;5.50;99.90;;;;;;4944983;29;20024;-68
2021/12/18 06:19:45;;;;;;;14.60;8.98;;;5.50;99.90;;;;;;4944101;29;20024;-68
2021/12/18 06:22:11;;;;;;;19.10;10.85;;;5.50;99.90;;;;;;4946123;29;20027;-68
2021/12/18 06:24:36;;;;;;;13.65;9.35;;;5.50;99.90;;;;;;4945706;29;20026;-68
2021/12/18 06:27:02;;;;;;;12.23;7.90;;;5.50;99.90;;;;;;4945075;29;20023;-68
2021/12/18 06:29:29;;;;;;;13.57;8.65;;;5.40;99.90;;;;;;4960702;29;20019;-68
2021/12/18 06:31:55;;;;;;;14.32;8.48;;;5.40;99.90;;;;;;4944098;29;20027;-68
2021/12/18 06:34:21;;;;;;;15.15;8.45;;;5.40;99.90;;;;;;4943974;29;20019;-68
2021/12/18 06:36:47;;;;;;;13.02;7.53;;;5.40;99.90;;;;;;4943384;29;20030;-68
2021/12/18 06:39:13;;;;;;;18.25;9.93;;;5.40;99.90;;;;;;4944583;29;20020;-68
2021/12/18 06:41:39;;;;;;;15.15;7.57;;;5.40;99.90;;;;;;4943892;29;20043;-68
2021/12/18 06:44:05;;;;;;;10.80;7.50;;;5.40;99.90;;;;;;4943644;29;20347;-68
2021/12/18 06:46:31;;;;;;;13.57;8.25;;;5.40;99.90;;;;;;4944421;29;20060;-68
2021/12/18 06:48:57;;;;;;;14.63;8.18;;;5.40;99.90;;;;;;4944834;29;20027;-67
2021/12/18 06:51:22;;;;;;;12.88;8.60;;;5.40;99.90;;;;;;4944414;29;20361;-68
2021/12/18 06:53:48;;;;;;;14.98;8.52;;;5.40;99.90;;;;;;4944590;29;20019;-68
2021/12/18 06:56:14;;;;;;;16.65;10.43;;;5.40;99.90;;;;;;4944413;29;20024;-68
2021/12/18 06:58:40;;;;;;;15.57;10.15;;;5.40;99.90;;;;;;4943390;29;20023;-68
2021/12/18 07:01:06;;;;;;;16.83;9.95;;;5.40;99.90;;;;;;4943069;29;20264;-68
2021/12/18 07:03:33;;;;;;;16.55;10.25;;;5.50;99.90;;;;;;4945736;29;20040;-68
2021/12/18 07:05:59;;;;;;;16.27;10.77;;;5.40;99.90;;;;;;4937518;29;20019;-68
2021/12/18 07:08:25;;;;;;;18.63;12.30;;;5.40;99.90;;;;;;4944140;29;20035;-68
2021/12/18 07:10:51;;;;;;;18.08;10.75;;;5.40;99.90;;;;;;4944411;29;20035;-68
2021/12/18 07:13:17;;;;;;;17.15;10.40;;;5.40;99.90;;;;;;4943767;29;20058;-68
2021/12/18 07:15:42;;;;;;;16.02;10.30;;;5.30;99.90;;;;;;4944843;29;20031;-68
2021/12/18 07:18:08;;;;;;;19.10;11.13;;;5.30;99.90;;;;;;4943950;29;20227;-68
2021/12/18 07:20:34;;;;;;;20.02;12.52;;;5.30;99.90;;;;;;4944097;29;20031;-68
2021/12/18 07:23:00;;;;;;;16.30;10.63;;;5.30;99.90;;;;;;4943137;29;20222;-68
2021/12/18 07:25:27;;;;;;;15.38;10.10;;;5.30;99.90;;;;;;4944065;29;20302;-68
2021/12/18 07:27:53;;;;;;;18.30;10.18;;;5.30;99.90;;;;;;4943315;29;20130;-68
2021/12/18 07:30:19;;;;;;;17.55;10.55;;;5.30;99.90;;;;;;4943291;29;20099;-67
2021/12/18 07:32:45;;;;;;;16.92;10.60;;;5.30;99.90;;;;;;4943077;29;20200;-69
2021/12/18 07:35:12;;;;;;;19.60;10.02;;;5.30;99.90;;;;;;4943510;29;20023;-67
2021/12/18 07:37:38;;;;;;;18.10;11.13;;;5.30;99.90;;;;;;4943990;29;20046;-68
2021/12/18 07:40:08;;;;;;;20.05;10.77;;;5.40;99.90;;;;;;4944429;29;20019;-67
2021/12/18 07:42:34;;;;;;;18.85;11.25;;;5.30;99.90;;;;;;4944065;29;20020;-67
2021/12/18 07:45:00;;;;;;;18.83;11.80;;;5.30;99.90;;;;;;4943014;29;20028;-67
2021/12/18 07:47:26;;;;;;;19.88;11.95;;;5.30;99.90;;;;;;4943847;29;20067;-67
2021/12/18 07:49:52;;;;;;;24.08;12.98;;;5.30;99.90;;;;;;4942736;29;20041;-68
2021/12/18 07:52:18;;;;;;;17.80;11.75;;;5.30;99.90;;;;;;4943785;29;20043;-67
2021/12/18 07:54:44;;;;;;;18.50;12.02;;;5.30;99.90;;;;;;4944547;29;20275;-67
2021/12/18 07:57:10;;;;;;;21.58;11.90;;;5.30;99.90;;;;;;4944027;29;20111;-67
2021/12/18 07:59:36;;;;;;;20.83;10.90;;;5.30;99.90;;;;;;4943610;29;20024;-69
2021/12/18 08:02:04;;;;;;;18.98;12.32;;;5.30;99.90;;;;;;4942383;29;20192;-68
2021/12/18 08:04:31;;;;;;;18.45;11.48;;;5.30;99.90;;;;;;4944650;29;20091;-68
2021/12/18 08:06:56;;;;;;;17.67;10.90;;;5.30;99.90;;;;;;4943726;29;20058;-67
2021/12/18 08:09:22;;;;;;;19.10;11.35;;;5.30;99.90;;;;;;4942569;29;20024;-67
2021/12/18 08:11:48;;;;;;;18.25;10.15;;;5.30;99.90;;;;;;4947535;29;20301;-69
2021/12/18 08:14:14;;;;;;;14.63;10.35;;;5.30;99.90;;;;;;4945789;29;20023;-67
2021/12/18 08:16:39;;;;;;;18.58;10.63;;;5.30;99.90;;;;;;4946670;29;20102;-68
2021/12/18 08:19:05;;;;;;;16.05;10.23;;;5.30;99.90;;;;;;4946008;29;20029;-68
2021/12/18 08:21:31;;;;;;;21.08;10.48;;;5.30;99.90;;;;;;4946711;29;20027;-67
2021/12/18 08:23:57;;;;;;;17.33;11.43;;;5.30;99.90;;;;;;4946283;29;20015;-69
2021/12/18 08:26:23;;;;;;;18.05;9.77;;;5.30;99.90;;;;;;4946321;29;20094;-69
2021/12/18 08:28:48;;;;;;;20.42;10.30;;;5.40;99.90;;;;;;4963823;28;20066;-68
2021/12/18 08:31:33;;;;;;;15.57;9.57;;;5.40;99.90;;;;;;4949524;29;20037;-68
2021/12/18 08:33:58;;;;;;;15.45;9.45;;;5.40;99.90;;;;;;4949586;29;20066;-68
2021/12/18 08:36:24;;;;;;;18.00;9.32;;;5.40;99.90;;;;;;4949762;29;20098;-67
2021/12/18 08:38:50;;;;;;;18.25;9.95;;;5.50;99.90;;;;;;4966849;29;20023;-69
2021/12/18 08:41:16;;;;;;;16.67;8.65;;;5.50;99.90;;;;;;4948413;29;20027;-68
2021/12/18 08:43:42;;;;;;;15.63;9.93;;;5.60;99.90;;;;;;4949697;29;20023;-68
2021/12/18 08:46:08;;;;;;;14.20;9.07;;;5.60;99.90;;;;;;4948655;29;20322;-68
2021/12/18 08:48:33;;;;;;;16.48;10.02;;;5.60;99.90;;;;;;4949872;29;20026;-67
2021/12/18 08:50:59;;;;;;;16.35;9.35;;;5.70;99.90;;;;;;4966256;29;20124;-68
2021/12/18 08:53:25;;;;;;;15.20;9.30;;;5.70;99.90;;;;;;4949629;29;20296;-67
2021/12/18 08:55:51;;;;;;;15.73;10.10;;;5.80;99.90;;;;;;4966695;29;20034;-70
2021/12/18 08:58:17;;;;;;;16.98;9.77;;;5.80;99.90;;;;;;4966229;29;20050;-68
2021/12/18 09:00:43;;;;;;;16.35;10.27;;;5.80;99.90;;;;;;4948946;29;20019;-68
2021/12/18 09:03:09;;;;;;;16.67;9.70;;;5.80;99.90;;;;;;4948364;29;20131;-68
2021/12/18 09:05:34;;;;;;;15.55;10.07;;;5.80;99.90;;;;;;4966287;29;20023;-68
2021/12/18 09:08:00;;;;;;;17.63;11.07;;;5.80;99.90;;;;;;4948500;29;20317;-68
2021/12/18 09:10:27;;;;;;;18.23;10.45;;;5.90;99.90;;;;;;4949395;29;20027;-67
2021/12/18 09:12:53;;;;;;;13.70;9.63;;;5.90;99.90;;;;;;4948824;29;20093;-69
2021/12/18 09:15:19;;;;;;;17.88;10.15;;;5.90;99.90;;;;;;4949050;29;20023;-67
2021/12/18 09:17:45;;;;;;;13.82;9.43;;;6.00;99.90;;;;;;4946143;29;20023;-67
2021/12/18 09:20:11;;;;;;;14.07;8.43;;;6.00;99.90;;;;;;4965035;29;20218;-67
2021/12/18 09:22:37;;;;;;;13.88;8.25;;;6.10;99.90;;;;;;4964677;29;20023;-67
2021/12/18 09:25:05;;;;;;;14.35;7.20;;;6.20;99.90;;;;;;4964571;29;20019;-67
2021/12/18 09:27:35;;;;;;;10.48;6.68;;;6.20;99.90;;;;;;4948150;29;20019;-67
2021/12/18 09:30:02;;;;;;;15.10;7.28;;;6.20;99.90;;;;;;4948252;29;20081;-67
2021/12/18 09:32:29;;;;;;;13.90;7.40;;;6.20;99.90;;;;;;4966133;29;20015;-67
2021/12/18 09:34:55;;;;;;;13.32;6.28;;;6.20;99.90;;;;;;4948596;29;20027;-69
2021/12/18 09:37:22;;;;;;;10.55;6.22;;;6.20;99.90;;;;;;4948517;29;20019;-68
2021/12/18 09:39:48;;;;;;;9.75;6.32;;;6.40;99.90;;;;;;4948486;29;20030;-69
2021/12/18 09:42:14;;;;;;;11.07;5.80;;;6.40;99.90;;;;;;4946939;29;20117;-67
2021/12/18 09:44:40;;;;;;;11.75;6.50;;;6.30;99.90;;;;;;4948103;29;20037;-67
2021/12/18 09:47:06;;;;;;;8.80;5.70;;;6.30;99.90;;;;;;4947378;29;20019;-68
2021/12/18 09:49:32;;;;;;;12.02;6.07;;;6.30;99.90;;;;;;4965109;29;20054;-68
2021/12/18 09:51:59;;;;;;;9.93;6.85;;;6.30;99.90;;;;;;4948109;29;20042;-69
2021/12/18 09:54:25;;;;;;;12.07;6.25;;;6.50;99.90;;;;;;4948708;29;20299;-67
2021/12/18 09:56:52;;;;;;;10.52;6.38;;;6.50;99.90;;;;;;4947831;29;20020;-68
2021/12/18 09:59:19;;;;;;;17.70;7.30;;;6.40;99.90;;;;;;4944750;29;20027;-68
2021/12/18 10:01:45;;;;;;;10.40;6.80;;;6.30;99.90;;;;;;4948320;29;20318;-69
2021/12/18 10:04:30;;;;;;;11.48;6.38;;;6.40;99.90;;;;;;4955459;29;20361;-70
2021/12/18 10:06:58;;;;;;;9.25;6.65;;;6.30;99.90;;;;;;4945539;29;20019;-70
2021/12/18 10:09:24;;;;;;;9.52;6.30;;;6.30;99.90;;;;;;4965075;29;20042;-68
2021/12/18 10:12:14;;;;;;;15.55;6.05;;;6.20;99.90;;;;;;4964580;29;20051;-68
2021/12/18 10:14:51;;;;;;;13.95;6.78;;;6.30;99.90;;;;;;4948226;29;20019;-68
2021/12/18 10:17:28;;;;;;;11.43;6.45;;;6.20;99.90;;;;;;4927483;29;20048;-68
2021/12/18 10:20:09;;;;;;;13.77;6.55;;;6.30;99.90;;;;;;4928602;29;20027;-66
2021/12/18 10:22:42;;;;;;;9.65;6.40;;;6.20;99.90;;;;;;4937650;29;20030;-66
2021/12/18 10:25:08;;;;;;;11.63;6.43;;;6.20;99.90;;;;;;4947545;29;20035;-67
2021/12/18 10:27:35;;;;;;;10.55;6.07;;;6.20;99.90;;;;;;4948613;29;20023;-67
2021/12/18 10:30:19;;;;;;;10.35;6.05;;;6.20;99.90;;;;;;4948207;29;20037;-68
2021/12/18 10:33:01;;;;;;;8.80;5.63;;;6.20;99.90;;;;;;4965306;29;20046;-67
2021/12/18 10:35:47;;;;;;;9.30;5.18;;;6.20;99.90;;;;;;4958221;29;20023;-71
2021/12/18 10:38:51;;;;;;;10.85;5.30;;;6.30;99.90;;;;;;4937989;29;20023;-68
2021/12/18 10:41:26;;;;;;;7.13;4.38;;;6.40;99.90;;;;;;4937846;29;20262;-69
2021/12/18 10:44:00;;;;;;;7.78;4.90;;;6.40;99.90;;;;;;4955168;29;20075;-69
2021/12/18 10:46:27;;;;;;;8.07;4.75;;;6.40;99.90;;;;;;4937337;29;20030;-68
2021/12/18 10:49:06;;;;;;;8.48;5.18;;;6.40;99.90;;;;;;4935823;29;20020;-68
2021/12/18 10:51:33;;;;;;;10.80;5.05;;;6.50;99.90;;;;;;4935690;28;20039;-68
2021/12/18 10:54:08;;;;;;;7.50;4.77;;;6.50;99.90;;;;;;4935968;29;20016;-69
2021/12/18 10:56:38;;;;;;;6.15;4.30;;;6.50;99.90;;;;;;4954483;29;20374;-67
2021/12/18 10:59:17;;;;;;;6.07;4.20;;;6.60;99.90;;;;;;4936134;29;20035;-68
2021/12/18 11:01:48;;;;;;;6.20;4.18;;;6.60;99.90;;;;;;4956337;29;20035;-67
2021/12/18 11:04:25;;;;;;;7.43;4.35;;;6.60;99.90;;;;;;4936636;29;20019;-68
2021/12/18 11:06:52;;;;;;;9.75;5.10;;;6.60;99.90;;;;;;4935897;29;20020;-68
2021/12/18 11:09:31;;;;;;;8.35;4.68;;;6.70;99.90;;;;;;4952667;29;20240;-69
2021/12/18 11:14:45;;;;;;;7.25;4.68;;;6.70;99.90;;;;;;4938035;29;20094;-68
2021/12/18 11:17:13;;;;;;;11.13;5.22;;;6.80;99.90;;;;;;4933802;29;20016;-68
2021/12/18 11:19:41;;;;;;;11.45;4.43;;;6.90;99.90;;;;;;4933502;29;20081;-67
2021/12/18 11:22:09;;;;;;;10.48;4.95;;;6.90;99.90;;;;;;4934820;29;20291;-68
2021/12/18 11:25:11;;;;;;;6.88;4.97;;;6.90;99.90;;;;;;4935193;29;20555;-68
2021/12/18 11:27:38;;;;;;;9.07;5.28;;;7.00;99.90;;;;;;4933935;29;20050;-67
2021/12/18 11:30:08;;;;;;;7.97;5.22;;;7.00;99.90;;;;;;4934455;29;20039;-68
2021/12/18 11:32:37;;;;;;;12.68;5.88;;;7.20;99.90;;;;;;4935236;29;20026;-68
2021/12/18 11:35:08;;;;;;;8.73;5.20;;;7.20;99.90;;;;;;4934131;29;20257;-68
2021/12/18 11:37:47;;;;;;;12.77;6.75;;;7.10;99.90;;;;;;4930773;29;20243;-68
2021/12/18 11:40:16;;;;;;;12.40;6.72;;;7.10;99.90;;;;;;4934008;29;20027;-67
2021/12/18 11:42:43;;;;;;;9.65;5.95;;;7.10;99.90;;;;;;4938261;29;20299;-67
2021/12/18 11:45:10;;;;;;;8.98;5.75;;;7.10;99.90;;;;;;4933317;29;20074;-68
2021/12/18 11:47:45;;;;;;;10.55;6.07;;;7.10;99.90;;;;;;4935021;29;20024;-68
2021/12/18 11:50:28;;;;;;;13.20;5.63;;;7.10;99.90;;;;;;4924351;29;20043;-69
2021/12/18 11:53:00;;;;;;;9.13;5.82;;;7.30;99.90;;;;;;4925245;29;20194;-69
2021/12/18 11:55:37;;;;;;;8.68;6.28;;;7.20;99.90;;;;;;4944077;29;20023;-67
2021/12/18 11:58:11;;;;;;;9.10;5.57;;;7.20;99.90;;;;;;4944321;29;20023;-68
2021/12/18 12:01:00;;;;;;;9.65;5.47;;;7.30;99.90;;;;;;4940697;29;20023;-67
2021/12/18 12:03:28;;;;;;;8.55;5.72;;;7.30;99.90;;;;;;4942587;29;20091;-67
2021/12/18 12:05:55;;;;;;;;;;;7.20;99.90;;;;;;4946366;29;20094;-67
2021/12/18 12:08:35;;;;;;;9.77;5.28;;;7.30;99.90;;;;;;4945998;29;19910;-68
2021/12/18 12:11:25;;;;;;;8.73;6.65;;;7.20;99.90;;;;;;4945326;29;20307;-67
2021/12/18 12:13:56;;;;;;;10.13;5.75;;;7.10;99.90;;;;;;4945791;29;20106;-68
2021/12/18 12:16:47;;;;;;;13.60;6.32;;;7.00;99.90;;;;;;4944127;29;20023;-68
2021/12/18 12:19:16;;;;;;;10.13;6.28;;;7.00;99.90;;;;;;4945611;29;20039;-68
2021/12/18 12:21:44;;;;;;;;;;;7.20;99.90;;;;;;4946845;29;20024;-68
2021/12/18 12:24:11;;;;;;;10.50;6.22;;;7.10;99.90;;;;;;4945833;29;19902;-68
2021/12/18 12:26:37;;;;;;;10.68;7.30;;;7.10;99.90;;;;;;4945066;29;20048;-69
2021/12/18 12:29:07;;;;;;;11.20;7.95;;;7.10;99.90;;;;;;4946461;29;20031;-68
2021/12/18 12:31:34;;;;;;;12.30;7.28;;;7.10;99.90;;;;;;4946101;29;20137;-67
2021/12/18 12:34:23;;;;;;;12.25;7.47;;;7.00;99.90;;;;;;4945873;29;20023;-70
2021/12/18 12:36:57;;;;;;;9.85;6.90;;;7.00;99.90;;;;;;4946153;29;20028;-68
2021/12/18 12:39:43;;;;;;;10.95;7.32;;;7.00;99.90;;;;;;4943762;29;20023;-69
2021/12/18 12:42:09;;;;;;;12.52;7.60;;;6.90;99.90;;;;;;4943577;29;20020;-70
2021/12/18 12:44:45;;;;;;;12.98;8.60;;;6.90;99.90;;;;;;4947261;29;20074;-71
2021/12/18 12:47:27;;;;;;;10.25;7.78;;;6.90;99.90;;;;;;4945086;29;20035;-69
2021/12/18 12:49:57;;;;;;;12.50;7.03;;;6.90;99.90;;;;;;4945972;29;20054;-69
2021/12/18 12:52:25;;;;;;;13.05;7.72;;;6.90;99.90;;;;;;4945384;29;20098;-69
2021/12/18 12:54:57;;;;;;;;;;;6.80;99.90;;;;;;4946383;29;20031;-69
2021/12/18 12:57:23;;;;;;;11.30;7.28;;;6.80;99.90;;;;;;4943359;29;20075;-68
2021/12/18 13:00:16;;;;;;;13.65;7.20;;;6.70;99.90;;;;;;4947055;29;20030;-68
2021/12/18 13:02:58;;;;;;;12.65;7.28;;;6.80;99.90;;;;;;4944509;29;20079;-69
2021/12/18 13:05:26;;;;;;;10.90;7.45;;;6.80;99.90;;;;;;4945379;29;20203;-69
2021/12/18 13:07:58;;;;;;;11.13;7.15;;;6.80;99.90;;;;;;4946133;29;20100;-70
2021/12/18 13:10:35;;;;;;;11.35;7.28;;;6.80;99.90;;;;;;4946322;29;20089;-71
2021/12/18 13:13:05;;;;;;;11.38;7.82;;;6.80;99.90;;;;;;4942963;29;20059;-73
2021/12/18 13:16:13;;;;;;;11.70;8.00;;;6.70;99.90;;;;;;4941923;29;20099;-69
2021/12/18 13:18:44;;;;;;;12.50;8.40;;;6.70;99.90;;;;;;4934747;29;20015;-69
2021/12/18 13:21:15;;;;;;;17.50;12.27;;;6.70;99.90;;;;;;4939211;29;20028;-69
2021/12/18 13:23:44;;;;;;;10.98;7.63;;;6.70;99.90;;;;;;4930541;29;20100;-69
2021/12/18 13:26:13;;;;;;;14.02;8.48;;;6.70;99.90;;;;;;4934399;29;20027;-71
2021/12/18 13:28:59;;;;;;;10.55;7.32;;;6.70;99.90;;;;;;4942756;29;20035;-70
2021/12/18 13:31:28;;;;;;;10.63;7.18;;;6.70;99.90;;;;;;4936905;29;20036;-69
2021/12/18 13:33:57;;;;;;;11.20;6.88;;;6.60;99.90;;;;;;4945202;29;20083;-70
2021/12/18 13:36:23;;;;;;;9.90;7.03;;;6.70;99.90;;;;;;4935335;29;20032;-69
2021/12/18 13:38:49;;;;;;;10.50;6.97;;;6.70;99.90;;;;;;4938062;29;20114;-69
2021/12/18 13:41:18;;;;;;;11.52;6.90;;;6.60;99.90;;;;;;4935294;29;20024;-69
2021/12/18 13:43:52;;;;;;;10.48;6.97;;;6.60;99.90;;;;;;4940557;29;20016;-68
2021/12/18 13:46:18;;;;;;;10.07;7.45;;;6.60;99.90;;;;;;4926236;29;20027;-69
2021/12/18 13:48:48;;;;;;;10.73;6.72;;;6.60;99.90;;;;;;4927013;29;20094;-69